createdAt,value
2023-01-09T00:01:55.142Z,3.28
2023-01-09T00:04:23.627Z,3.10
2023-01-09T00:06:54.465Z,1.05
2023-01-09T00:09:23.241Z,0.77
2023-01-09T00:11:50.589Z,1.48
2023-01-09T00:14:19.105Z,1.02
2023-01-09T00:16:46.671Z,1.95
2023-01-09T00:19:13.984Z,2.50
2023-01-09T00:21:41.515Z,2.20
2023-01-09T00:24:09.553Z,1.67
2023-01-09T00:26:36.975Z,1.67
2023-01-09T00:29:04.494Z,2.22
2023-01-09T00:31:32.437Z,4.30
2023-01-09T00:34:02.642Z,2.58
2023-01-09T00:36:30.241Z,2.22
2023-01-09T00:38:57.434Z,2.40
2023-01-09T00:41:33.301Z,4.18
2023-01-09T00:44:06.201Z,3.35
2023-01-09T00:46:38.049Z,2.55
2023-01-09T00:49:07.933Z,2.22
2023-01-09T00:51:35.417Z,2.85
2023-01-09T00:54:04.120Z,1.85
2023-01-09T00:56:32.588Z,1.77
2023-01-09T00:58:59.815Z,2.03
2023-01-09T01:01:27.185Z,2.40
2023-01-09T01:03:54.313Z,2.10
2023-01-09T01:06:40.718Z,2.33
2023-01-09T01:09:07.897Z,3.70
2023-01-09T01:11:36.103Z,3.30
2023-01-09T01:14:03.511Z,3.53
2023-01-09T01:16:30.804Z,4.22
2023-01-09T01:18:57.791Z,3.92
2023-01-09T01:21:24.668Z,2.97
2023-01-09T01:23:51.549Z,1.90
2023-01-09T01:26:18.767Z,2.90
2023-01-09T01:28:46.161Z,1.75
2023-01-09T01:31:18.979Z,1.73
2023-01-09T01:33:46.693Z,1.85
2023-01-09T01:36:16.267Z,1.52
2023-01-09T01:38:47.579Z,3.00
2023-01-09T01:41:14.699Z,3.28
2023-01-09T01:44:03.771Z,3.25
2023-01-09T01:46:33.129Z,2.25
2023-01-09T01:49:20.624Z,1.95
2023-01-09T01:51:54.332Z,1.65
2023-01-09T01:54:29.013Z,1.65
2023-01-09T01:56:58.663Z,1.80
2023-01-09T01:59:30.945Z,2.80
2023-01-09T02:02:01.315Z,2.58
2023-01-09T02:04:30.560Z,5.43
2023-01-09T02:06:59.357Z,2.55
2023-01-09T02:09:27.011Z,1.55
2023-01-09T02:11:57.138Z,1.02
2023-01-09T02:14:28.231Z,1.90
2023-01-09T02:17:30.307Z,3.85
2023-01-09T02:20:28.338Z,1.75
2023-01-09T02:23:29.601Z,0.70
2023-01-09T02:26:21.281Z,0.50
2023-01-09T02:29:23.871Z,0.82
2023-01-09T02:32:00.426Z,1.02
2023-01-09T02:35:00.474Z,1.15
2023-01-09T02:37:54.767Z,1.65
2023-01-09T02:42:56.410Z,1.20
2023-01-09T02:45:23.603Z,0.70
2023-01-09T02:47:50.773Z,0.93
2023-01-09T02:50:22.886Z,0.45
2023-01-09T02:53:41.396Z,0.00
2023-01-09T02:56:39.355Z,0.75
2023-01-09T02:59:33.082Z,0.70
2023-01-09T03:02:37.960Z,0.00
2023-01-09T03:05:10.625Z,0.20
2023-01-09T03:07:53.825Z,0.10
2023-01-09T03:10:45.836Z,1.35
2023-01-09T03:13:17.408Z,0.00
2023-01-09T03:15:47.017Z,0.00
2023-01-09T03:18:16.079Z,0.00
2023-01-09T03:20:43.874Z,0.00
2023-01-09T03:23:10.773Z,0.25
2023-01-09T03:25:37.694Z,0.00
2023-01-09T03:28:17.414Z,0.20
2023-01-09T03:30:44.443Z,0.52
2023-01-09T03:33:11.524Z,0.03
2023-01-09T03:35:38.437Z,1.42
2023-01-09T03:38:07.302Z,0.00
2023-01-09T03:40:35.005Z,0.00
2023-01-09T03:43:01.944Z,0.25
2023-01-09T03:45:29.493Z,0.00
2023-01-09T03:47:58.687Z,0.00
2023-01-09T03:50:25.810Z,0.00
2023-01-09T03:52:52.729Z,0.03
2023-01-09T03:55:19.620Z,0.00
2023-01-09T03:57:46.929Z,0.00
2023-01-09T04:00:14.299Z,0.00
2023-01-09T04:02:41.238Z,0.00
2023-01-09T04:05:08.494Z,0.00
2023-01-09T04:07:35.745Z,0.00
2023-01-09T04:10:02.937Z,0.00
2023-01-09T04:12:29.904Z,0.22
2023-01-09T04:14:56.951Z,0.32
2023-01-09T04:17:23.973Z,0.03
2023-01-09T04:19:50.954Z,0.00
2023-01-09T04:22:17.875Z,0.52
2023-01-09T04:24:52.838Z,0.20
2023-01-09T04:27:19.952Z,0.00
2023-01-09T04:29:46.806Z,0.22
2023-01-09T04:32:13.975Z,0.05
2023-01-09T04:34:40.955Z,0.00
2023-01-09T04:37:07.919Z,0.10
2023-01-09T04:39:35.011Z,0.00
2023-01-09T04:42:01.885Z,0.00
2023-01-09T04:44:28.892Z,0.00
2023-01-09T04:46:59.108Z,0.00
2023-01-09T04:49:27.965Z,0.35
2023-01-09T04:51:55.652Z,0.20
2023-01-09T04:54:22.903Z,0.20
2023-01-09T04:56:50.764Z,0.63
2023-01-09T04:59:18.159Z,0.85
2023-01-09T05:01:45.242Z,0.00
2023-01-09T05:04:13.199Z,0.00
2023-01-09T05:06:40.521Z,0.52
2023-01-09T05:09:07.851Z,0.60
2023-01-09T05:11:34.766Z,0.00
2023-01-09T05:14:01.643Z,0.25
2023-01-09T05:16:28.600Z,0.65
2023-01-09T05:18:57.182Z,0.70
2023-01-09T05:21:24.978Z,0.25
2023-01-09T05:23:52.049Z,0.15
2023-01-09T05:26:24.023Z,0.50
2023-01-09T05:28:52.513Z,0.55
2023-01-09T05:31:20.710Z,0.32
2023-01-09T05:33:47.824Z,0.35
2023-01-09T05:36:15.167Z,0.22
2023-01-09T05:38:42.055Z,0.47
2023-01-09T05:41:09.130Z,0.47
2023-01-09T05:43:36.053Z,0.00
2023-01-09T05:46:03.637Z,0.65
2023-01-09T05:48:30.485Z,0.00
2023-01-09T05:50:57.332Z,0.10
2023-01-09T05:53:24.315Z,1.38
2023-01-09T05:55:51.183Z,0.40
2023-01-09T05:58:18.146Z,0.30
2023-01-09T06:00:45.110Z,0.52
2023-01-09T06:03:12.288Z,0.20
2023-01-09T06:05:39.191Z,0.70
2023-01-09T06:08:06.172Z,0.88
2023-01-09T06:10:33.011Z,0.57
2023-01-09T06:12:59.876Z,0.55
2023-01-09T06:15:26.955Z,0.00
2023-01-09T06:17:54.015Z,0.17
2023-01-09T06:20:21.254Z,3.25
2023-01-09T06:22:51.966Z,0.22
2023-01-09T06:25:19.318Z,1.30
2023-01-09T06:27:46.441Z,0.32
2023-01-09T06:30:13.610Z,0.52
2023-01-09T06:32:40.577Z,2.30
2023-01-09T06:35:07.741Z,0.68
2023-01-09T06:37:36.570Z,0.00
2023-01-09T06:40:03.923Z,1.08
2023-01-09T06:42:30.844Z,2.20
2023-01-09T06:44:57.727Z,0.75
2023-01-09T06:47:25.077Z,0.00
2023-01-09T06:49:51.911Z,1.70
2023-01-09T06:52:18.721Z,0.80
2023-01-09T06:54:45.678Z,0.28
2023-01-09T06:57:14.620Z,0.63
2023-01-09T06:59:41.562Z,0.28
2023-01-09T07:02:18.287Z,2.03
2023-01-09T07:04:45.676Z,0.00
2023-01-09T07:07:13.190Z,0.10
2023-01-09T07:09:40.056Z,0.15
2023-01-09T07:12:07.126Z,0.70
2023-01-09T07:14:34.287Z,1.77
2023-01-09T07:17:01.393Z,0.85
2023-01-09T07:19:28.299Z,1.80
2023-01-09T07:21:55.291Z,1.70
2023-01-09T07:24:25.028Z,0.08
2023-01-09T07:26:56.165Z,1.92
2023-01-09T07:29:23.135Z,1.20
2023-01-09T07:31:50.066Z,1.77
2023-01-09T07:34:17.057Z,0.65
2023-01-09T07:36:46.701Z,1.27
2023-01-09T07:39:13.885Z,0.98
2023-01-09T07:41:40.976Z,0.82
2023-01-09T07:44:10.234Z,1.00
2023-01-09T07:46:38.063Z,0.40
2023-01-09T07:49:05.107Z,0.30
2023-01-09T07:51:32.423Z,1.70
2023-01-09T07:56:32.426Z,0.20
2023-01-09T07:59:01.424Z,0.50
2023-01-09T08:01:31.880Z,0.63
2023-01-09T08:04:03.134Z,0.45
2023-01-09T08:06:34.103Z,0.57
2023-01-09T08:09:03.924Z,0.47
2023-01-09T08:11:43.605Z,0.22
2023-01-09T08:14:13.931Z,1.63
2023-01-09T08:16:45.531Z,0.90
2023-01-09T08:19:13.916Z,0.63
2023-01-09T08:21:44.026Z,1.70
2023-01-09T08:24:15.515Z,0.55
2023-01-09T08:26:45.084Z,0.73
2023-01-09T08:29:15.297Z,2.50
2023-01-09T08:31:49.921Z,1.17
2023-01-09T08:34:19.023Z,1.10
2023-01-09T08:36:48.391Z,0.73
2023-01-09T08:39:16.490Z,0.40
2023-01-09T08:42:05.972Z,0.68
2023-01-09T08:44:53.329Z,1.65
2023-01-09T08:47:24.750Z,0.68
2023-01-09T08:49:57.008Z,0.60
2023-01-09T08:52:27.636Z,0.65
2023-01-09T08:54:58.893Z,6.32
2023-01-09T08:57:28.802Z,1.00
2023-01-09T08:59:58.936Z,2.70
2023-01-09T09:02:29.357Z,0.90
2023-01-09T09:04:59.551Z,1.35
2023-01-09T09:07:29.556Z,2.08
2023-01-09T09:09:59.618Z,1.30
2023-01-09T09:12:28.108Z,0.70
2023-01-09T09:15:12.446Z,1.15
2023-01-09T09:17:45.500Z,2.63
2023-01-09T09:20:16.072Z,0.57
2023-01-09T09:22:48.943Z,0.98
2023-01-09T09:25:18.649Z,0.70
2023-01-09T09:27:48.551Z,2.58
2023-01-09T09:30:20.417Z,0.80
2023-01-09T09:32:53.576Z,0.50
2023-01-09T09:35:22.700Z,1.33
2023-01-09T09:37:59.134Z,0.65
2023-01-09T09:40:35.944Z,1.70
2023-01-09T09:43:59.948Z,0.50
2023-01-09T09:47:04.567Z,1.10
2023-01-09T09:49:50.475Z,0.82
2023-01-09T09:52:36.157Z,0.57
2023-01-09T09:55:16.589Z,0.85
2023-01-09T09:57:47.731Z,2.42
2023-01-09T10:00:20.139Z,2.10
2023-01-09T10:03:16.473Z,1.40
2023-01-09T10:08:39.118Z,1.50
2023-01-09T10:11:22.232Z,2.15
2023-01-09T10:14:08.224Z,2.05
2023-01-09T10:16:47.153Z,0.30
2023-01-09T10:19:55.470Z,0.63
2023-01-09T10:22:59.777Z,1.25
2023-01-09T10:25:46.557Z,0.98
2023-01-09T10:28:55.934Z,0.90
2023-01-09T10:31:45.646Z,0.47
2023-01-09T10:34:51.053Z,1.65
2023-01-09T10:37:39.429Z,0.38
2023-01-09T10:40:25.087Z,1.45
2023-01-09T10:43:02.656Z,0.80
2023-01-09T10:46:03.562Z,0.60
2023-01-09T10:48:35.481Z,0.95
2023-01-09T10:51:24.244Z,0.52
2023-01-09T10:53:57.530Z,1.02
2023-01-09T10:56:28.409Z,1.23
2023-01-09T10:58:56.543Z,1.33
2023-01-09T11:01:37.665Z,0.55
2023-01-09T11:04:32.930Z,1.60
2023-01-09T11:07:15.855Z,1.63
2023-01-09T11:10:09.701Z,1.23
2023-01-09T11:12:37.624Z,1.23
2023-01-09T11:15:17.203Z,0.38
2023-01-09T11:17:44.421Z,1.25
2023-01-09T11:20:19.642Z,0.52
2023-01-09T11:22:51.472Z,1.33
2023-01-09T11:25:20.735Z,0.15
2023-01-09T11:28:02.978Z,0.35
2023-01-09T11:32:59.287Z,1.23
2023-01-09T11:35:34.100Z,0.88
2023-01-09T11:38:16.914Z,1.95
2023-01-09T11:40:55.345Z,1.45
2023-01-09T11:43:33.610Z,1.50
2023-01-09T11:46:06.099Z,1.23
2023-01-09T11:48:39.376Z,2.05
2023-01-09T11:51:27.925Z,1.77
2023-01-09T11:54:14.405Z,1.15
2023-01-09T11:56:42.195Z,1.77
2023-01-09T11:59:15.266Z,1.83
2023-01-09T12:01:51.448Z,0.68
2023-01-09T12:04:48.355Z,1.95
2023-01-09T12:07:37.118Z,3.17
2023-01-09T12:10:04.606Z,0.95
2023-01-09T12:13:08.001Z,0.80
2023-01-09T12:15:57.188Z,1.02
2023-01-09T12:18:30.453Z,0.40
2023-01-09T12:21:17.893Z,1.30
2023-01-09T12:24:09.937Z,0.80
2023-01-09T12:27:05.149Z,0.68
2023-01-09T12:29:50.833Z,0.95
2023-01-09T12:32:37.205Z,0.45
2023-01-09T12:35:11.356Z,0.32
2023-01-09T12:37:57.001Z,0.90
2023-01-09T12:40:54.306Z,0.57
2023-01-09T12:43:36.541Z,0.70
2023-01-09T12:46:17.993Z,1.30
2023-01-09T12:49:06.407Z,0.47
2023-01-09T12:51:48.821Z,1.35
2023-01-09T12:56:58.575Z,0.50
2023-01-09T12:59:43.030Z,2.08
2023-01-09T13:02:24.093Z,1.20
2023-01-09T13:04:58.109Z,0.82
2023-01-09T13:07:42.105Z,0.95
2023-01-09T13:10:16.871Z,0.98
2023-01-09T13:12:49.356Z,1.77
2023-01-09T13:18:12.444Z,1.13
2023-01-09T13:20:50.134Z,0.10
2023-01-09T13:23:49.354Z,2.30
2023-01-09T13:26:24.774Z,0.80
2023-01-09T13:29:04.332Z,1.33
2023-01-09T13:32:02.055Z,1.92
2023-01-09T13:34:38.874Z,0.35
2023-01-09T13:37:30.678Z,1.08
2023-01-09T13:40:28.573Z,1.25
2023-01-09T13:43:02.600Z,0.20
2023-01-09T13:45:35.757Z,3.25
2023-01-09T13:48:17.873Z,0.43
2023-01-09T13:50:51.083Z,1.50
2023-01-09T13:53:20.422Z,3.20
2023-01-09T13:55:59.527Z,0.95
2023-01-09T13:58:38.200Z,0.57
2023-01-09T14:01:25.413Z,2.75
2023-01-09T14:04:16.211Z,1.23
2023-01-09T14:07:20.547Z,0.75
2023-01-09T14:09:57.305Z,0.73
2023-01-09T14:12:31.833Z,1.33
2023-01-09T14:15:04.225Z,1.20
2023-01-09T14:17:38.542Z,0.30
2023-01-09T14:20:26.796Z,3.20
2023-01-09T14:23:17.997Z,2.10
2023-01-09T14:25:52.398Z,1.10
2023-01-09T14:28:24.581Z,3.13
2023-01-09T14:30:54.585Z,2.25
2023-01-09T14:36:09.371Z,1.63
2023-01-09T14:38:50.499Z,0.88
2023-01-09T14:41:55.557Z,1.52
2023-01-09T14:44:31.507Z,0.88
2023-01-09T14:47:24.085Z,0.25
2023-01-09T14:50:04.446Z,2.45
2023-01-09T14:52:45.755Z,0.90
2023-01-09T14:55:52.549Z,0.77
2023-01-09T14:58:28.260Z,1.10
2023-01-09T15:01:11.543Z,2.17
2023-01-09T15:03:52.742Z,0.35
2023-01-09T15:06:25.117Z,0.20
2023-01-09T15:09:02.946Z,1.48
2023-01-09T15:11:38.810Z,0.25
2023-01-09T15:14:19.781Z,1.80
2023-01-09T15:16:52.549Z,2.08
2023-01-09T15:19:20.553Z,0.75
2023-01-09T15:22:17.701Z,1.27
2023-01-09T15:24:50.031Z,1.17
2023-01-09T15:27:23.922Z,1.42
2023-01-09T15:29:55.373Z,0.10
2023-01-09T15:32:30.013Z,1.27
2023-01-09T15:34:58.792Z,1.35
2023-01-09T15:37:29.665Z,3.25
2023-01-09T15:40:08.580Z,1.38
2023-01-09T15:42:58.484Z,0.43
2023-01-09T15:45:41.491Z,1.02
2023-01-09T15:48:23.682Z,0.55
2023-01-09T15:50:58.188Z,1.80
2023-01-09T15:56:06.209Z,0.55
2023-01-09T15:58:36.177Z,0.98
2023-01-09T16:01:25.532Z,1.60
2023-01-09T16:03:56.461Z,1.83
2023-01-09T16:06:26.763Z,2.03
2023-01-09T16:08:56.315Z,0.35
2023-01-09T16:11:36.205Z,0.75
2023-01-09T16:14:19.537Z,0.40
2023-01-09T16:16:48.082Z,0.28
2023-01-09T16:19:34.925Z,1.27
2023-01-09T16:22:03.511Z,0.50
2023-01-09T16:24:49.802Z,1.50
2023-01-09T16:27:26.198Z,0.57
2023-01-09T16:29:58.228Z,1.65
2023-01-09T16:32:45.609Z,4.47
2023-01-09T16:35:18.882Z,0.90
2023-01-09T16:37:46.318Z,3.00
2023-01-09T16:40:21.259Z,1.42
2023-01-09T16:43:00.681Z,0.47
2023-01-09T16:45:34.589Z,3.38
2023-01-09T16:48:03.847Z,1.08
2023-01-09T16:50:31.047Z,1.25
2023-01-09T16:53:02.187Z,0.63
2023-01-09T16:55:29.619Z,0.30
2023-01-09T16:57:56.795Z,2.85
2023-01-09T17:00:24.254Z,0.90
2023-01-09T17:02:51.801Z,2.35
2023-01-09T17:05:19.268Z,10.90
2023-01-09T17:07:46.520Z,15.48
2023-01-09T17:10:21.363Z,5.00
2023-01-09T17:12:49.021Z,2.22
2023-01-09T17:15:16.391Z,4.78
2023-01-09T17:17:43.931Z,1.83
2023-01-09T17:20:18.261Z,2.03
2023-01-09T17:22:45.890Z,1.45
2023-01-09T17:25:35.577Z,0.70
2023-01-09T17:28:25.352Z,0.90
2023-01-09T17:30:52.820Z,0.80
2023-01-09T17:33:20.375Z,0.55
2023-01-09T17:36:02.670Z,0.43
2023-01-09T17:38:30.231Z,1.35
2023-01-09T17:40:57.472Z,1.92
2023-01-09T17:43:24.763Z,1.15
2023-01-09T17:45:51.843Z,0.45
2023-01-09T17:48:22.108Z,0.93
2023-01-09T17:50:49.894Z,1.02
2023-01-09T17:53:18.072Z,0.82
2023-01-09T17:55:45.240Z,3.88
2023-01-09T17:58:29.246Z,1.30
2023-01-09T18:00:57.796Z,1.02
2023-01-09T18:03:31.040Z,2.90
2023-01-09T18:05:58.466Z,2.72
2023-01-09T18:08:25.640Z,1.30
2023-01-09T18:10:53.191Z,0.08
2023-01-09T18:13:22.719Z,3.08
2023-01-09T18:15:49.779Z,0.50
2023-01-09T18:18:17.128Z,2.20
2023-01-09T18:20:45.523Z,0.60
2023-01-09T18:23:12.999Z,0.40
2023-01-09T18:25:43.977Z,3.97
2023-01-09T18:28:15.360Z,1.17
2023-01-09T18:30:48.133Z,0.93
2023-01-09T18:33:18.546Z,0.82
2023-01-09T18:35:46.917Z,0.40
2023-01-09T18:38:13.960Z,1.33
2023-01-09T18:40:42.008Z,1.13
2023-01-09T18:43:10.514Z,0.80
2023-01-09T18:45:38.727Z,1.55
2023-01-09T18:48:07.766Z,1.52
2023-01-09T18:50:34.784Z,1.05
2023-01-09T18:53:02.243Z,0.28
2023-01-09T18:55:29.370Z,1.15
2023-01-09T18:57:56.651Z,0.75
2023-01-09T19:00:24.367Z,0.10
2023-01-09T19:02:51.434Z,0.70
2023-01-09T19:05:18.662Z,3.38
2023-01-09T19:07:45.663Z,2.03
2023-01-09T19:10:13.108Z,0.75
2023-01-09T19:12:40.123Z,3.28
2023-01-09T19:15:11.652Z,7.20
2023-01-09T19:17:39.589Z,2.25
2023-01-09T19:20:07.572Z,2.45
2023-01-09T19:22:34.942Z,2.53
2023-01-09T19:25:02.052Z,3.58
2023-01-09T19:27:30.526Z,5.80
2023-01-09T19:29:58.182Z,2.83
2023-01-09T19:32:25.188Z,4.00
2023-01-09T19:35:03.959Z,3.65
2023-01-09T19:37:31.402Z,3.28
2023-01-09T19:39:58.562Z,2.25
2023-01-09T19:42:25.741Z,2.83
2023-01-09T19:44:53.196Z,1.35
2023-01-09T19:47:20.486Z,1.23
2023-01-09T19:49:47.379Z,2.47
2023-01-09T19:52:15.028Z,2.58
2023-01-09T19:54:41.995Z,2.55
2023-01-09T19:57:09.161Z,0.50
2023-01-09T19:59:37.309Z,1.50
2023-01-09T20:02:04.315Z,4.60
2023-01-09T20:04:31.549Z,7.32
2023-01-09T20:06:58.535Z,8.27
2023-01-09T20:09:27.701Z,1.23
2023-01-09T20:11:54.852Z,1.13
2023-01-09T20:14:22.672Z,10.50
2023-01-09T20:16:52.597Z,5.15
2023-01-09T20:19:19.789Z,5.57
2023-01-09T20:21:47.517Z,2.13
2023-01-09T20:24:16.694Z,4.82
2023-01-09T20:26:44.118Z,1.23
2023-01-09T20:29:11.244Z,0.75
2023-01-09T20:31:38.483Z,1.25
2023-01-09T20:34:05.490Z,0.82
2023-01-09T20:36:32.861Z,3.25
2023-01-09T20:39:02.284Z,1.27
2023-01-09T20:41:31.035Z,1.08
2023-01-09T20:44:00.946Z,0.50
2023-01-09T20:46:30.315Z,1.95
2023-01-09T20:49:03.656Z,6.18
2023-01-09T20:51:31.250Z,4.47
2023-01-09T20:53:58.645Z,10.57
2023-01-09T20:56:30.659Z,11.80
2023-01-09T20:58:59.490Z,4.25
2023-01-09T21:01:26.699Z,3.08
2023-01-09T21:03:56.920Z,2.28
2023-01-09T21:06:25.691Z,2.42
2023-01-09T21:08:53.244Z,1.15
2023-01-09T21:11:21.896Z,1.88
2023-01-09T21:13:50.016Z,1.35
2023-01-09T21:16:20.108Z,1.63
2023-01-09T21:18:48.515Z,0.35
2023-01-09T21:21:18.057Z,1.35
2023-01-09T21:23:51.991Z,2.45
2023-01-09T21:26:22.569Z,1.45
2023-01-09T21:28:54.916Z,1.73
2023-01-09T21:31:26.415Z,0.52
2023-01-09T21:33:56.344Z,0.55
2023-01-09T21:36:23.801Z,0.82
2023-01-09T21:38:52.272Z,0.20
2023-01-09T21:41:39.101Z,1.38
2023-01-09T21:44:24.894Z,3.47
2023-01-09T21:46:51.972Z,4.55
2023-01-09T21:49:20.741Z,2.90
2023-01-09T21:51:47.816Z,2.95
2023-01-09T21:54:15.287Z,3.67
2023-01-09T21:56:42.279Z,3.78
2023-01-09T21:59:10.209Z,5.68
2023-01-09T22:01:37.151Z,5.72
2023-01-09T22:04:04.687Z,4.43
2023-01-09T22:06:31.762Z,0.80
2023-01-09T22:09:00.934Z,1.00
2023-01-09T22:11:29.329Z,1.17
2023-01-09T22:13:57.766Z,4.53
2023-01-09T22:16:26.775Z,3.20
2023-01-09T22:18:55.188Z,5.00
2023-01-09T22:21:23.444Z,18.42
2023-01-09T22:23:51.250Z,14.45
2023-01-09T22:26:18.956Z,8.50
2023-01-09T22:28:47.022Z,2.75
2023-01-09T22:31:20.415Z,0.68
2023-01-09T22:33:52.244Z,3.83
2023-01-09T22:36:19.469Z,2.92
2023-01-09T22:38:52.763Z,4.35
2023-01-09T22:41:19.701Z,4.07
2023-01-09T22:43:46.757Z,5.63
2023-01-09T22:46:13.764Z,3.20
2023-01-09T22:48:42.040Z,2.67
2023-01-09T22:51:15.068Z,1.17
2023-01-09T22:53:42.563Z,0.45
2023-01-09T22:56:13.197Z,1.30
2023-01-09T23:01:22.690Z,0.30
2023-01-09T23:03:50.228Z,0.40
2023-01-09T23:06:20.517Z,0.25
2023-01-09T23:08:50.755Z,0.08
2023-01-09T23:11:43.939Z,0.30
2023-01-09T23:14:11.655Z,0.50
2023-01-09T23:16:38.898Z,0.57
2023-01-09T23:19:07.305Z,0.68
2023-01-09T23:21:37.495Z,0.25
2023-01-09T23:24:09.662Z,0.65
2023-01-09T23:26:38.722Z,1.60
2023-01-09T23:29:07.360Z,0.88
2023-01-09T23:31:35.207Z,1.05
2023-01-09T23:34:03.110Z,1.17
2023-01-09T23:36:30.342Z,1.77
2023-01-09T23:38:57.238Z,0.82
2023-01-09T23:41:44.343Z,0.70
2023-01-09T23:44:11.643Z,0.45
2023-01-09T23:46:38.495Z,0.10
2023-01-09T23:49:05.536Z,0.38
2023-01-09T23:51:33.592Z,0.45
2023-01-09T23:54:00.495Z,0.35
2023-01-09T23:56:27.992Z,1.75
2023-01-09T23:58:54.992Z,0.57
